Time;durP1;ratioP1;P1;durP2;ratioP2;P2;SDS_P1;SDS_P2;PMS_P1;PMS_P2;Temp;Humidity;BMP_temperature;BMP_pressure;BME280_temperature;BME280_humidity;BME280_pressure;Samples;Min_cycle;Max_cycle;Signal;HPM_P1;HPM_P2
2023/03/15 00:01:07;;;;;;;9.32;8.73;;;;;;;;;;4992551;28;20022;-47
2023/03/15 00:03:36;;;;;;;9.93;9.32;;;;;;;;;;4993569;28;20038;-48
2023/03/15 00:06:02;;;;;;;9.25;8.65;;;;;;;;;;4992056;28;20824;-47
2023/03/15 00:08:32;;;;;;;9.00;8.40;;;;;;;;;;4992757;28;20042;-52
2023/03/15 00:10:58;;;;;;;9.73;9.10;;;;;;;;;;4992901;28;20042;-50
2023/03/15 00:13:24;;;;;;;9.23;8.63;;;;;;;;;;4992193;28;20037;-51
2023/03/15 00:15:51;;;;;;;9.07;8.48;;;;;;;;;;4995972;28;20049;-51
2023/03/15 00:18:17;;;;;;;9.90;9.30;;;;;;;;;;4997957;28;20049;-48
2023/03/15 00:20:43;;;;;;;11.25;10.35;;;;;;;;;;4990559;28;20033;-51
2023/03/15 00:23:09;;;;;;;9.13;8.52;;;;;;;;;;4992058;28;20100;-48
2023/03/15 00:25:34;;;;;;;9.77;9.18;;;;;;;;;;4995383;28;20096;-51
2023/03/15 00:27:59;;;;;;;9.57;8.98;;;;;;;;;;4992489;28;20053;-50
2023/03/15 00:30:25;;;;;;;8.88;8.27;;;;;;;;;;4993977;28;20080;-51
2023/03/15 00:32:53;;;;;;;9.43;8.82;;;;;;;;;;4993810;28;20087;-49
2023/03/15 00:35:20;;;;;;;9.52;8.93;;;;;;;;;;4994901;28;20511;-48
2023/03/15 00:37:45;;;;;;;9.70;9.10;;;;;;;;;;4992553;28;20030;-50
2023/03/15 00:40:11;;;;;;;10.02;9.43;;;;;;;;;;4993539;28;20041;-50
2023/03/15 00:42:37;;;;;;;10.15;9.55;;;;;;;;;;4994036;28;20480;-50
2023/03/15 00:45:04;;;;;;;10.20;9.60;;;;;;;;;;4993630;28;20041;-50
2023/03/15 00:47:29;;;;;;;9.88;9.27;;;;;;;;;;4991118;28;20038;-52
2023/03/15 00:49:55;;;;;;;11.02;10.32;;;;;;;;;;4998592;28;20080;-48
2023/03/15 00:52:20;;;;;;;10.68;9.98;;;;;;;;;;5000990;28;20470;-48
2023/03/15 00:54:53;;;;;;;12.13;11.32;;;;;;;;;;4995058;28;20539;-51
2023/03/15 00:57:19;;;;;;;11.73;11.02;;;;;;;;;;4997490;28;20461;-46
2023/03/15 00:59:44;;;;;;;11.00;10.32;;;;;;;;;;4997713;28;20046;-50
2023/03/15 01:02:10;;;;;;;10.23;9.63;;;;;;;;;;4994344;28;20040;-49
2023/03/15 01:04:36;;;;;;;11.50;10.80;;;;;;;;;;4994934;28;20050;-48
2023/03/15 01:07:02;;;;;;;11.80;11.00;;;;;;;;;;4997036;28;20116;-50
2023/03/15 01:09:29;;;;;;;10.65;10.00;;;;;;;;;;4997917;28;20030;-50
2023/03/15 01:11:54;;;;;;;11.63;10.38;;;;;;;;;;4993543;28;20030;-51
2023/03/15 01:14:20;;;;;;;10.45;9.75;;;;;;;;;;4996183;28;20037;-51
2023/03/15 01:16:45;;;;;;;10.05;9.45;;;;;;;;;;4995507;28;20026;-51
2023/03/15 01:19:12;;;;;;;10.73;10.05;;;;;;;;;;4993426;28;20117;-48
2023/03/15 01:21:38;;;;;;;10.05;9.43;;;;;;;;;;4995052;28;20038;-52
2023/03/15 01:24:03;;;;;;;8.82;8.27;;;;;;;;;;4995347;28;20123;-48
2023/03/15 01:26:29;;;;;;;9.80;9.20;;;;;;;;;;4993759;28;20055;-49
2023/03/15 01:28:54;;;;;;;11.02;10.05;;;;;;;;;;4993841;28;20029;-49
2023/03/15 01:31:21;;;;;;;10.48;9.45;;;;;;;;;;4999990;28;20128;-47
2023/03/15 01:33:46;;;;;;;10.90;10.05;;;;;;;;;;4997517;28;20033;-50
2023/03/15 01:36:12;;;;;;;9.20;8.48;;;;;;;;;;4996137;28;20552;-49
2023/03/15 01:38:38;;;;;;;9.02;8.43;;;;;;;;;;4998196;28;20055;-51
2023/03/15 01:41:04;;;;;;;8.50;8.00;;;;;;;;;;4996018;28;20091;-52
2023/03/15 01:43:30;;;;;;;8.48;7.88;;;;;;;;;;4999120;28;20038;-49
2023/03/15 01:46:33;;;;;;;8.65;8.07;;;;;;;;;;4992975;28;20491;-49
2023/03/15 01:49:14;;;;;;;9.20;8.60;;;;;;;;;;4989625;28;20463;-55
2023/03/15 01:51:57;;;;;;;9.18;8.57;;;;;;;;;;4995568;28;20117;-51
2023/03/15 01:54:29;;;;;;;8.27;7.68;;;;;;;;;;4997201;28;20408;-52
2023/03/15 01:57:24;;;;;;;8.77;8.23;;;;;;;;;;4994861;28;20018;-52
2023/03/15 02:00:10;;;;;;;8.55;8.05;;;;;;;;;;5006145;28;20049;-52
2023/03/15 02:02:36;;;;;;;8.98;8.38;;;;;;;;;;4996361;28;20052;-52
2023/03/15 02:05:08;;;;;;;8.10;7.60;;;;;;;;;;4996202;28;20122;-49
2023/03/15 02:07:36;;;;;;;8.65;8.10;;;;;;;;;;4995836;28;20034;-50
2023/03/15 02:10:09;;;;;;;7.80;7.30;;;;;;;;;;4993070;28;20037;-48
2023/03/15 02:12:41;;;;;;;7.80;7.30;;;;;;;;;;4996338;28;20085;-51
2023/03/15 02:15:08;;;;;;;8.68;8.10;;;;;;;;;;4995171;28;20038;-52
2023/03/15 02:17:42;;;;;;;8.45;7.85;;;;;;;;;;4993361;28;20065;-50
2023/03/15 02:20:29;;;;;;;8.40;7.88;;;;;;;;;;4993158;28;20069;-51
2023/03/15 02:23:04;;;;;;;8.43;7.90;;;;;;;;;;4990838;28;20049;-48
2023/03/15 02:26:01;;;;;;;9.63;8.90;;;;;;;;;;4995878;28;20123;-48
2023/03/15 02:28:27;;;;;;;8.43;7.93;;;;;;;;;;4993439;28;20534;-49
2023/03/15 02:30:52;;;;;;;8.13;7.63;;;;;;;;;;4996480;28;20083;-49
2023/03/15 02:33:56;;;;;;;8.25;7.75;;;;;;;;;;4995312;28;20038;-50
2023/03/15 02:36:25;;;;;;;8.40;7.80;;;;;;;;;;4979892;28;20148;-51
2023/03/15 02:38:51;;;;;;;8.65;8.05;;;;;;;;;;4994039;28;20040;-52
2023/03/15 02:41:25;;;;;;;9.10;8.50;;;;;;;;;;4995954;28;20129;-51
2023/03/15 02:43:54;;;;;;;9.25;8.65;;;;;;;;;;4993673;28;20034;-48
2023/03/15 02:46:21;;;;;;;8.02;7.53;;;;;;;;;;5001442;28;20073;-52
2023/03/15 02:48:48;;;;;;;8.23;7.72;;;;;;;;;;4989645;28;20111;-52
2023/03/15 02:51:20;;;;;;;9.30;8.70;;;;;;;;;;4993844;28;20039;-50
2023/03/15 02:53:45;;;;;;;9.73;9.13;;;;;;;;;;4993677;28;20038;-51
2023/03/15 02:56:13;;;;;;;9.15;8.55;;;;;;;;;;4993603;28;20038;-49
2023/03/15 02:58:39;;;;;;;8.15;7.65;;;;;;;;;;4991105;28;20709;-48
2023/03/15 03:01:04;;;;;;;8.32;7.82;;;;;;;;;;4990500;28;20109;-51
2023/03/15 03:03:29;;;;;;;8.15;7.65;;;;;;;;;;4993808;28;20036;-49
2023/03/15 03:05:55;;;;;;;8.68;8.15;;;;;;;;;;4995622;28;20053;-52
2023/03/15 03:08:20;;;;;;;8.20;7.68;;;;;;;;;;4994176;28;20406;-50
2023/03/15 03:10:45;;;;;;;8.70;8.18;;;;;;;;;;4994353;28;20052;-49
2023/03/15 03:13:11;;;;;;;8.10;7.60;;;;;;;;;;4993165;28;20034;-48
2023/03/15 03:15:36;;;;;;;7.85;7.35;;;;;;;;;;4997165;28;20045;-48
2023/03/15 03:18:02;;;;;;;8.30;7.80;;;;;;;;;;5001578;28;20045;-48
2023/03/15 03:20:27;;;;;;;9.13;8.43;;;;;;;;;;4992215;28;20034;-50
2023/03/15 03:22:54;;;;;;;8.60;8.10;;;;;;;;;;4992418;28;20100;-51
2023/03/15 03:25:20;;;;;;;8.63;8.02;;;;;;;;;;4994823;28;20061;-48
2023/03/15 03:27:46;;;;;;;8.32;7.72;;;;;;;;;;4992505;28;20038;-48
2023/03/15 03:30:12;;;;;;;8.00;7.50;;;;;;;;;;4996100;28;20096;-52
2023/03/15 03:32:41;;;;;;;8.70;8.13;;;;;;;;;;4991676;28;20081;-49
2023/03/15 03:35:07;;;;;;;9.05;8.35;;;;;;;;;;4992772;28;20445;-52
2023/03/15 03:37:34;;;;;;;8.90;8.10;;;;;;;;;;4993618;28;20030;-51
2023/03/15 03:40:00;;;;;;;8.35;7.85;;;;;;;;;;4996230;28;20038;-49
2023/03/15 03:42:25;;;;;;;8.20;7.70;;;;;;;;;;4996719;28;20045;-50
2023/03/15 03:44:53;;;;;;;8.15;7.65;;;;;;;;;;4990204;28;20167;-52
2023/03/15 03:47:18;;;;;;;9.63;8.70;;;;;;;;;;4990126;28;20095;-48
2023/03/15 03:49:44;;;;;;;8.88;8.27;;;;;;;;;;4990404;28;20038;-52
2023/03/15 03:52:09;;;;;;;8.10;7.60;;;;;;;;;;4997980;28;20030;-50
2023/03/15 03:54:35;;;;;;;8.43;7.90;;;;;;;;;;4993604;28;20507;-50
2023/03/15 03:57:00;;;;;;;8.30;7.80;;;;;;;;;;4990678;28;20034;-50
2023/03/15 03:59:25;;;;;;;8.95;8.35;;;;;;;;;;4994995;28;20026;-52
2023/03/15 04:01:51;;;;;;;8.23;7.72;;;;;;;;;;4995522;28;20033;-50
2023/03/15 04:04:16;;;;;;;9.15;8.45;;;;;;;;;;4994423;28;20721;-56
2023/03/15 04:06:44;;;;;;;8.18;7.57;;;;;;;;;;4991841;28;20098;-52
2023/03/15 04:09:14;;;;;;;8.38;7.88;;;;;;;;;;4995414;28;20034;-55
2023/03/15 04:11:44;;;;;;;8.68;8.13;;;;;;;;;;4995268;28;20042;-56
2023/03/15 04:14:11;;;;;;;9.27;8.68;;;;;;;;;;4994458;28;20176;-55
2023/03/15 04:16:37;;;;;;;8.88;8.27;;;;;;;;;;4995291;28;20029;-56
2023/03/15 04:19:03;;;;;;;8.32;7.82;;;;;;;;;;4995002;28;20145;-55
2023/03/15 04:21:30;;;;;;;8.80;8.20;;;;;;;;;;4993162;28;20096;-56
2023/03/15 04:24:00;;;;;;;8.60;8.10;;;;;;;;;;4993304;28;20432;-56
2023/03/15 04:26:26;;;;;;;9.25;8.65;;;;;;;;;;5003856;28;20046;-49
2023/03/15 04:28:53;;;;;;;12.60;8.20;;;;;;;;;;4996353;28;20034;-48
2023/03/15 04:31:19;;;;;;;8.50;8.00;;;;;;;;;;4997523;28;20042;-50
2023/03/15 04:33:44;;;;;;;8.50;7.90;;;;;;;;;;4997691;28;20646;-50
2023/03/15 04:36:17;;;;;;;9.27;8.68;;;;;;;;;;5003203;28;20045;-49
2023/03/15 04:38:45;;;;;;;8.55;8.05;;;;;;;;;;4996804;28;20030;-50
2023/03/15 04:41:11;;;;;;;10.27;9.50;;;;;;;;;;5011632;28;20113;-50
2023/03/15 04:43:36;;;;;;;8.80;8.20;;;;;;;;;;4996605;28;20145;-52
2023/03/15 04:46:01;;;;;;;8.95;8.35;;;;;;;;;;4999574;28;20526;-51
2023/03/15 04:48:27;;;;;;;8.93;8.32;;;;;;;;;;4995460;28;20096;-50
2023/03/15 04:50:52;;;;;;;9.20;8.60;;;;;;;;;;4997075;28;20030;-55
2023/03/15 04:53:17;;;;;;;13.05;8.70;;;;;;;;;;4993512;28;20462;-51
2023/03/15 04:55:43;;;;;;;9.20;8.60;;;;;;;;;;4997367;28;20434;-52
2023/03/15 04:58:08;;;;;;;10.00;9.40;;;;;;;;;;5009374;28;20044;-52
2023/03/15 05:00:33;;;;;;;8.95;8.35;;;;;;;;;;4997192;28;20109;-48
2023/03/15 05:02:59;;;;;;;9.55;8.95;;;;;;;;;;4997277;28;20035;-51
2023/03/15 05:05:24;;;;;;;10.70;10.00;;;;;;;;;;4995952;28;20042;-51
2023/03/15 05:07:50;;;;;;;9.57;8.98;;;;;;;;;;5011392;28;20053;-48
2023/03/15 05:10:16;;;;;;;11.10;10.40;;;;;;;;;;4995611;28;20459;-51
2023/03/15 05:12:41;;;;;;;10.35;9.65;;;;;;;;;;4997479;28;20062;-50
2023/03/15 05:15:08;;;;;;;9.95;9.35;;;;;;;;;;4997339;28;20037;-49
2023/03/15 05:17:33;;;;;;;9.80;9.20;;;;;;;;;;4996090;28;20580;-50
2023/03/15 05:20:00;;;;;;;9.57;8.98;;;;;;;;;;4995464;28;20066;-51
2023/03/15 05:22:26;;;;;;;9.80;9.20;;;;;;;;;;4996484;28;21469;-49
2023/03/15 05:24:55;;;;;;;9.90;9.30;;;;;;;;;;4998363;28;20617;-50
2023/03/15 05:27:20;;;;;;;10.35;9.75;;;;;;;;;;5011457;28;20595;-50
2023/03/15 05:29:45;;;;;;;11.23;10.52;;;;;;;;;;5003130;28;20037;-52
2023/03/15 05:32:11;;;;;;;10.93;10.13;;;;;;;;;;4995509;28;20045;-50
2023/03/15 05:34:36;;;;;;;10.23;9.63;;;;;;;;;;4999113;28;20034;-52
2023/03/15 05:37:01;;;;;;;11.40;10.60;;;;;;;;;;4996031;28;20385;-52
2023/03/15 05:39:27;;;;;;;11.13;10.43;;;;;;;;;;4996654;28;20041;-52
2023/03/15 05:41:52;;;;;;;10.60;10.00;;;;;;;;;;4996508;28;20130;-51
2023/03/15 05:44:18;;;;;;;9.93;9.32;;;;;;;;;;4993577;28;20121;-50
2023/03/15 05:46:43;;;;;;;9.70;9.10;;;;;;;;;;4992918;28;20037;-48
2023/03/15 05:49:09;;;;;;;10.02;9.43;;;;;;;;;;4991452;28;20112;-48
2023/03/15 05:51:34;;;;;;;10.63;9.93;;;;;;;;;;4988871;28;20045;-50
2023/03/15 05:54:00;;;;;;;10.75;10.05;;;;;;;;;;5005769;28;20464;-50
2023/03/15 05:56:25;;;;;;;10.13;9.52;;;;;;;;;;5009822;28;20033;-52
2023/03/15 05:58:50;;;;;;;9.48;8.85;;;;;;;;;;4994320;28;20048;-49
2023/03/15 06:01:16;;;;;;;9.98;9.27;;;;;;;;;;4991134;28;20041;-50
2023/03/15 06:03:42;;;;;;;9.07;8.48;;;;;;;;;;4991011;28;20051;-52
2023/03/15 06:06:07;;;;;;;10.93;9.75;;;;;;;;;;4993871;28;20208;-49
2023/03/15 06:08:32;;;;;;;9.30;8.70;;;;;;;;;;4993856;28;20038;-50
2023/03/15 06:10:58;;;;;;;9.43;8.82;;;;;;;;;;4996867;28;20039;-50
2023/03/15 06:13:23;;;;;;;9.88;9.27;;;;;;;;;;4995913;28;20421;-52
2023/03/15 06:15:49;;;;;;;8.23;7.72;;;;;;;;;;5001247;28;20528;-53
2023/03/15 06:18:16;;;;;;;10.20;9.27;;;;;;;;;;4996066;28;20038;-53
2023/03/15 06:20:41;;;;;;;8.70;8.10;;;;;;;;;;4997231;28;20034;-49
2023/03/15 06:23:07;;;;;;;11.30;9.32;;;;;;;;;;4992940;28;20092;-47
2023/03/15 06:25:32;;;;;;;9.20;8.60;;;;;;;;;;4992602;28;20030;-51
2023/03/15 06:27:57;;;;;;;9.30;8.70;;;;;;;;;;4993442;28;20089;-49
2023/03/15 06:30:24;;;;;;;10.43;9.75;;;;;;;;;;4993963;28;20080;-52
2023/03/15 06:32:50;;;;;;;8.82;8.23;;;;;;;;;;4996152;28;20038;-52
2023/03/15 06:35:16;;;;;;;11.57;9.93;;;;;;;;;;4992380;28;20034;-52
2023/03/15 06:37:41;;;;;;;9.60;9.00;;;;;;;;;;4992883;28;20091;-49
2023/03/15 06:40:08;;;;;;;9.88;9.07;;;;;;;;;;4997262;28;20030;-48
2023/03/15 06:42:34;;;;;;;9.70;9.10;;;;;;;;;;5009657;28;20034;-50
2023/03/15 06:45:00;;;;;;;9.68;8.98;;;;;;;;;;4981873;28;20042;-49
2023/03/15 06:47:26;;;;;;;10.55;9.85;;;;;;;;;;4991074;28;20057;-51
2023/03/15 06:49:51;;;;;;;9.75;9.15;;;;;;;;;;4995513;28;20042;-52
2023/03/15 06:52:17;;;;;;;9.98;9.38;;;;;;;;;;4991485;28;20042;-53
2023/03/15 06:54:43;;;;;;;10.25;9.65;;;;;;;;;;4995033;28;20048;-51
2023/03/15 06:57:08;;;;;;;10.65;9.95;;;;;;;;;;4995160;28;20061;-51
2023/03/15 06:59:33;;;;;;;11.25;10.55;;;;;;;;;;4997366;28;20042;-53
2023/03/15 07:01:59;;;;;;;12.18;11.38;;;;;;;;;;4996744;28;20030;-55
2023/03/15 07:04:24;;;;;;;11.20;10.50;;;;;;;;;;4991308;28;20045;-55
2023/03/15 07:06:50;;;;;;;11.32;10.30;;;;;;;;;;4991509;28;20030;-55
2023/03/15 07:09:16;;;;;;;11.60;10.80;;;;;;;;;;4989603;28;20053;-54
2023/03/15 07:11:41;;;;;;;13.18;11.70;;;;;;;;;;4991797;28;20439;-54
2023/03/15 07:14:06;;;;;;;11.90;11.20;;;;;;;;;;4992895;28;20569;-54
2023/03/15 07:16:32;;;;;;;12.50;11.80;;;;;;;;;;4991761;28;20531;-54
2023/03/15 07:18:58;;;;;;;11.30;10.60;;;;;;;;;;4997987;28;20149;-54
2023/03/15 07:21:24;;;;;;;11.02;10.32;;;;;;;;;;4989387;28;20867;-55
2023/03/15 07:23:50;;;;;;;11.45;10.75;;;;;;;;;;4991537;28;20083;-56
2023/03/15 07:26:15;;;;;;;11.60;10.80;;;;;;;;;;4995017;28;20041;-55
2023/03/15 07:28:43;;;;;;;11.75;10.95;;;;;;;;;;4994304;28;20454;-56
2023/03/15 07:31:10;;;;;;;12.52;11.73;;;;;;;;;;4987736;28;20086;-52
2023/03/15 07:33:36;;;;;;;11.13;10.43;;;;;;;;;;4990406;28;21730;-53
2023/03/15 07:36:03;;;;;;;10.85;10.02;;;;;;;;;;4996704;28;20042;-55
2023/03/15 07:38:28;;;;;;;10.00;9.40;;;;;;;;;;4990283;28;20455;-49
2023/03/15 07:40:54;;;;;;;10.20;9.50;;;;;;;;;;4992059;28;20141;-51
2023/03/15 07:43:20;;;;;;;9.48;8.88;;;;;;;;;;4993209;28;20070;-47
2023/03/15 07:45:45;;;;;;;9.80;9.20;;;;;;;;;;4995321;28;20040;-49
2023/03/15 07:48:11;;;;;;;10.38;9.70;;;;;;;;;;4994765;28;20097;-49
2023/03/15 07:50:36;;;;;;;10.43;9.80;;;;;;;;;;4995350;28;20142;-50
2023/03/15 07:53:03;;;;;;;10.57;9.95;;;;;;;;;;4997493;28;20052;-46
2023/03/15 07:55:28;;;;;;;11.52;10.82;;;;;;;;;;4994827;28;20042;-51
2023/03/15 07:57:54;;;;;;;12.20;11.40;;;;;;;;;;4995680;28;20392;-50
2023/03/15 08:00:21;;;;;;;11.55;10.75;;;;;;;;;;4992479;28;20515;-50
2023/03/15 08:02:46;;;;;;;10.18;9.57;;;;;;;;;;4995680;28;20109;-46
2023/03/15 08:05:12;;;;;;;10.02;9.43;;;;;;;;;;4994819;28;20117;-47
2023/03/15 08:07:37;;;;;;;9.98;9.38;;;;;;;;;;5000339;28;20041;-50
2023/03/15 08:10:04;;;;;;;10.68;9.98;;;;;;;;;;4993375;28;20511;-50
2023/03/15 08:12:30;;;;;;;10.27;9.68;;;;;;;;;;4993610;28;20034;-49
2023/03/15 08:14:55;;;;;;;10.90;10.20;;;;;;;;;;4992277;28;20049;-51
2023/03/15 08:17:20;;;;;;;12.43;10.32;;;;;;;;;;4992251;28;20454;-47
2023/03/15 08:19:46;;;;;;;10.32;9.63;;;;;;;;;;4993946;28;20372;-51
2023/03/15 08:22:11;;;;;;;10.32;9.73;;;;;;;;;;4992952;28;20451;-50
2023/03/15 08:24:37;;;;;;;10.63;9.82;;;;;;;;;;4994197;28;20069;-51
2023/03/15 08:27:03;;;;;;;10.73;10.02;;;;;;;;;;4994139;28;20431;-52
2023/03/15 08:29:29;;;;;;;9.65;9.05;;;;;;;;;;4989785;28;20459;-49
2023/03/15 08:31:54;;;;;;;10.95;10.25;;;;;;;;;;4994590;28;20052;-52
2023/03/15 08:34:20;;;;;;;9.40;8.80;;;;;;;;;;4991858;28;20089;-51
2023/03/15 08:36:46;;;;;;;9.77;9.18;;;;;;;;;;4990842;28;20026;-48
2023/03/15 08:39:12;;;;;;;10.63;9.93;;;;;;;;;;4993557;28;20084;-53
2023/03/15 08:41:38;;;;;;;10.07;9.48;;;;;;;;;;4994553;28;20125;-49
2023/03/15 08:44:04;;;;;;;10.65;9.88;;;;;;;;;;4990814;28;20090;-49
2023/03/15 08:46:29;;;;;;;10.07;9.48;;;;;;;;;;4990451;28;20177;-51
2023/03/15 08:48:55;;;;;;;9.88;9.27;;;;;;;;;;4990319;28;20137;-52
2023/03/15 08:51:20;;;;;;;10.15;9.55;;;;;;;;;;4989979;28;20487;-51
2023/03/15 08:53:46;;;;;;;9.60;9.00;;;;;;;;;;4991693;28;20022;-50
2023/03/15 08:56:11;;;;;;;10.73;10.02;;;;;;;;;;4973767;28;20115;-50
2023/03/15 08:58:36;;;;;;;10.48;9.77;;;;;;;;;;5005287;28;20033;-50
2023/03/15 09:01:03;;;;;;;9.50;8.90;;;;;;;;;;4991220;28;20113;-51
2023/03/15 09:03:31;;;;;;;9.75;9.15;;;;;;;;;;4992360;28;20038;-50
2023/03/15 09:05:58;;;;;;;9.95;9.27;;;;;;;;;;4990612;28;20041;-48
2023/03/15 09:08:24;;;;;;;10.27;9.57;;;;;;;;;;4991393;28;20069;-51
2023/03/15 09:10:56;;;;;;;10.00;9.40;;;;;;;;;;4993114;28;20038;-49
2023/03/15 09:13:22;;;;;;;9.25;8.65;;;;;;;;;;4994118;28;20026;-49
2023/03/15 09:15:51;;;;;;;9.63;9.02;;;;;;;;;;4996695;28;20107;-50
2023/03/15 09:18:17;;;;;;;10.15;9.50;;;;;;;;;;4996022;28;20037;-52
2023/03/15 09:20:43;;;;;;;9.85;9.25;;;;;;;;;;4994695;28;20045;-49
2023/03/15 09:23:08;;;;;;;11.13;10.43;;;;;;;;;;4994205;28;20657;-50
2023/03/15 09:25:35;;;;;;;10.38;9.68;;;;;;;;;;4995767;28;20087;-47
2023/03/15 09:28:06;;;;;;;10.40;9.75;;;;;;;;;;4993225;28;20392;-51
2023/03/15 09:30:32;;;;;;;10.93;10.23;;;;;;;;;;4994293;28;20041;-49
2023/03/15 09:32:58;;;;;;;11.27;10.50;;;;;;;;;;4994466;28;20115;-48
2023/03/15 09:35:23;;;;;;;11.63;10.93;;;;;;;;;;4995464;28;20030;-51
2023/03/15 09:37:49;;;;;;;11.38;10.68;;;;;;;;;;4995711;28;20061;-51
2023/03/15 09:40:26;;;;;;;12.50;11.52;;;;;;;;;;4996955;28;20443;-51
2023/03/15 09:43:02;;;;;;;12.10;11.38;;;;;;;;;;4994696;28;20026;-47
2023/03/15 09:45:47;;;;;;;11.35;10.55;;;;;;;;;;4997848;28;20126;-48
2023/03/15 09:48:26;;;;;;;11.30;10.60;;;;;;;;;;4996403;28;20048;-53
2023/03/15 09:51:00;;;;;;;12.15;11.45;;;;;;;;;;4992076;28;20132;-51
2023/03/15 09:53:59;;;;;;;12.75;11.93;;;;;;;;;;4992897;28;20085;-52
2023/03/15 09:56:28;;;;;;;11.00;10.30;;;;;;;;;;4997791;28;20100;-46
2023/03/15 09:58:58;;;;;;;10.98;10.27;;;;;;;;;;4993880;28;20026;-51
2023/03/15 10:01:33;;;;;;;11.77;11.07;;;;;;;;;;4998592;28;20684;-50
2023/03/15 10:04:04;;;;;;;11.93;11.15;;;;;;;;;;4993642;28;20510;-48
2023/03/15 10:06:33;;;;;;;11.55;10.85;;;;;;;;;;4994568;28;20092;-51
2023/03/15 10:09:09;;;;;;;11.43;10.73;;;;;;;;;;4995173;28;20221;-52
2023/03/15 10:12:06;;;;;;;11.02;10.32;;;;;;;;;;4996535;28;20042;-51
2023/03/15 10:14:40;;;;;;;11.35;10.65;;;;;;;;;;4996981;28;20164;-48
2023/03/15 10:17:11;;;;;;;10.77;10.10;;;;;;;;;;4997304;28;20046;-53
2023/03/15 10:19:57;;;;;;;10.88;10.18;;;;;;;;;;4995841;28;20573;-51
2023/03/15 10:22:29;;;;;;;10.38;9.77;;;;;;;;;;4997408;28;20034;-48
2023/03/15 10:25:10;;;;;;;10.30;9.70;;;;;;;;;;4995048;28;20048;-50
2023/03/15 10:27:49;;;;;;;11.57;10.88;;;;;;;;;;4992890;28;20033;-52
2023/03/15 10:30:21;;;;;;;10.95;10.25;;;;;;;;;;4997014;28;20042;-51
2023/03/15 10:33:45;;;;;;;9.82;9.13;;;;;;;;;;4994302;28;20377;-48
2023/03/15 10:36:20;;;;;;;9.48;8.88;;;;;;;;;;4931420;28;20054;-51
2023/03/15 10:38:47;;;;;;;9.93;9.32;;;;;;;;;;4983482;28;20086;-51
2023/03/15 10:41:26;;;;;;;12.13;11.13;;;;;;;;;;4993222;28;20384;-51
2023/03/15 10:44:02;;;;;;;9.65;9.05;;;;;;;;;;4993737;28;20046;-52
2023/03/15 10:46:28;;;;;;;9.93;9.27;;;;;;;;;;4993704;28;20069;-48
2023/03/15 10:48:59;;;;;;;10.70;10.05;;;;;;;;;;4995802;28;20795;-52
2023/03/15 10:51:27;;;;;;;;;;;;;;;;;;4994041;28;20045;-51
2023/03/15 10:53:59;;;;;;;10.80;10.10;;;;;;;;;;4994343;28;20327;-49
2023/03/15 10:56:27;;;;;;;10.85;10.15;;;;;;;;;;4995839;28;20038;-49
2023/03/15 10:58:57;;;;;;;10.75;10.05;;;;;;;;;;4978773;28;20188;-51
2023/03/15 11:01:28;;;;;;;12.05;11.25;;;;;;;;;;4995758;28;20113;-53
2023/03/15 11:04:01;;;;;;;10.65;9.95;;;;;;;;;;4995817;28;20041;-50
2023/03/15 11:06:28;;;;;;;9.57;8.98;;;;;;;;;;4994091;28;20038;-52
2023/03/15 11:09:07;;;;;;;9.95;9.35;;;;;;;;;;4995621;28;20061;-51
2023/03/15 11:12:01;;;;;;;9.90;9.23;;;;;;;;;;4993958;28;20030;-49
2023/03/15 11:14:45;;;;;;;9.68;8.98;;;;;;;;;;4989055;28;20041;-52
2023/03/15 11:17:18;;;;;;;10.50;9.90;;;;;;;;;;4993859;28;20377;-52
2023/03/15 11:19:52;;;;;;;10.82;10.13;;;;;;;;;;4991929;28;20040;-51
2023/03/15 11:22:18;;;;;;;9.73;9.13;;;;;;;;;;4991803;28;20042;-51
2023/03/15 11:24:43;;;;;;;11.25;10.55;;;;;;;;;;4979811;28;20059;-48
2023/03/15 11:27:14;;;;;;;10.18;9.57;;;;;;;;;;4997078;28;20737;-51
2023/03/15 11:29:51;;;;;;;10.45;9.80;;;;;;;;;;4993135;28;20430;-52
2023/03/15 11:32:20;;;;;;;10.15;9.45;;;;;;;;;;4994946;28;20456;-49
2023/03/15 11:35:04;;;;;;;10.85;10.15;;;;;;;;;;4993108;28;20049;-50
2023/03/15 11:37:43;;;;;;;11.15;10.45;;;;;;;;;;4993431;28;20034;-50
2023/03/15 11:40:16;;;;;;;10.48;9.82;;;;;;;;;;4994396;28;20044;-50
2023/03/15 11:43:10;;;;;;;10.05;9.45;;;;;;;;;;4992849;28;20045;-52
2023/03/15 11:46:07;;;;;;;9.85;9.25;;;;;;;;;;4993322;28;20041;-50
2023/03/15 11:48:45;;;;;;;9.60;9.00;;;;;;;;;;4994159;28;20034;-50
2023/03/15 11:51:12;;;;;;;9.18;8.57;;;;;;;;;;4996228;28;20042;-50
2023/03/15 11:53:42;;;;;;;10.20;9.60;;;;;;;;;;4994191;28;20073;-51
2023/03/15 11:56:43;;;;;;;10.82;10.13;;;;;;;;;;4990818;28;20080;-49
2023/03/15 11:59:11;;;;;;;9.40;8.80;;;;;;;;;;4990208;28;20121;-49
2023/03/15 12:01:44;;;;;;;10.75;10.05;;;;;;;;;;4991429;28;20068;-52
2023/03/15 12:04:36;;;;;;;12.27;11.48;;;;;;;;;;4992410;28;20104;-51
2023/03/15 12:07:15;;;;;;;11.23;10.52;;;;;;;;;;4993075;28;20196;-48
2023/03/15 12:09:51;;;;;;;10.20;9.60;;;;;;;;;;4988841;28;20034;-49
2023/03/15 12:12:22;;;;;;;10.70;10.05;;;;;;;;;;4993635;28;20040;-49
2023/03/15 12:14:59;;;;;;;10.48;9.88;;;;;;;;;;4988514;28;20483;-50
2023/03/15 12:17:27;;;;;;;9.90;9.20;;;;;;;;;;4992912;28;20045;-50
2023/03/15 12:19:58;;;;;;;10.23;9.63;;;;;;;;;;4994420;28;20038;-52
2023/03/15 12:22:29;;;;;;;11.43;10.73;;;;;;;;;;4993281;28;20033;-51
2023/03/15 12:25:04;;;;;;;9.82;9.20;;;;;;;;;;4997688;28;20044;-50
2023/03/15 12:27:29;;;;;;;9.77;9.18;;;;;;;;;;4990810;28;20523;-51
2023/03/15 12:30:01;;;;;;;9.18;8.57;;;;;;;;;;4991501;28;20041;-50
2023/03/15 12:32:29;;;;;;;9.75;9.15;;;;;;;;;;4992860;28;20131;-49
2023/03/15 12:35:07;;;;;;;10.23;9.63;;;;;;;;;;4991820;28;20038;-49
2023/03/15 12:37:42;;;;;;;9.07;8.48;;;;;;;;;;5006838;28;20045;-48
2023/03/15 12:40:14;;;;;;;10.60;9.93;;;;;;;;;;4993921;28;20157;-50
2023/03/15 12:42:39;;;;;;;9.63;9.02;;;;;;;;;;4994061;28;20034;-49
2023/03/15 12:45:38;;;;;;;9.80;9.20;;;;;;;;;;4993228;28;20041;-49
2023/03/15 12:48:05;;;;;;;10.15;9.32;;;;;;;;;;4994691;28;20519;-49
2023/03/15 12:50:42;;;;;;;9.30;8.70;;;;;;;;;;4995360;28;20102;-51
2023/03/15 12:53:37;;;;;;;10.18;9.57;;;;;;;;;;4995703;28;20170;-49
2023/03/15 12:56:22;;;;;;;10.40;9.80;;;;;;;;;;4995960;28;20537;-54
2023/03/15 12:58:52;;;;;;;9.63;9.02;;;;;;;;;;4995926;28;20045;-50
2023/03/15 13:01:17;;;;;;;10.18;9.57;;;;;;;;;;4995074;28;20030;-48
2023/03/15 13:03:43;;;;;;;10.93;10.10;;;;;;;;;;4997065;28;20049;-47
2023/03/15 13:06:46;;;;;;;9.77;9.18;;;;;;;;;;4997519;28;20431;-49
2023/03/15 13:09:17;;;;;;;10.75;10.05;;;;;;;;;;4995311;28;20026;-51
2023/03/15 13:11:42;;;;;;;11.40;10.60;;;;;;;;;;4995741;28;20120;-51
2023/03/15 13:14:20;;;;;;;10.73;10.02;;;;;;;;;;4998315;28;20129;-51
2023/03/15 13:17:16;;;;;;;10.40;9.75;;;;;;;;;;4995745;28;20744;-52
2023/03/15 13:19:48;;;;;;;10.18;9.52;;;;;;;;;;4996024;28;20048;-49
2023/03/15 13:22:27;;;;;;;9.95;9.35;;;;;;;;;;4995555;28;20026;-52
2023/03/15 13:25:08;;;;;;;9.98;9.38;;;;;;;;;;4995744;28;20653;-51
2023/03/15 13:27:49;;;;;;;10.65;10.00;;;;;;;;;;4992515;28;20049;-52
2023/03/15 13:30:48;;;;;;;10.35;9.63;;;;;;;;;;4995805;28;20034;-50
2023/03/15 13:33:19;;;;;;;10.25;9.65;;;;;;;;;;4999800;28;20041;-49
2023/03/15 13:36:04;;;;;;;10.82;10.13;;;;;;;;;;4997532;28;20034;-49
2023/03/15 13:38:37;;;;;;;9.90;9.30;;;;;;;;;;4993613;28;20439;-52
2023/03/15 13:41:05;;;;;;;14.30;9.73;;;;;;;;;;4993690;28;20040;-47
2023/03/15 13:43:36;;;;;;;10.05;9.45;;;;;;;;;;4994548;28;20034;-49
2023/03/15 13:46:02;;;;;;;;;;;;;;;;;;4995125;28;20122;-48
2023/03/15 13:48:29;;;;;;;10.50;9.82;;;;;;;;;;4996651;28;20008;-51
2023/03/15 13:51:03;;;;;;;11.13;10.43;;;;;;;;;;4995776;28;20033;-49
2023/03/15 13:53:31;;;;;;;10.50;9.80;;;;;;;;;;4997139;28;20033;-52
2023/03/15 13:55:57;;;;;;;11.48;10.73;;;;;;;;;;4994061;28;20096;-49
2023/03/15 13:58:23;;;;;;;12.18;11.48;;;;;;;;;;4995262;28;20356;-49
2023/03/15 14:00:55;;;;;;;12.35;11.40;;;;;;;;;;4996948;28;20034;-50
2023/03/15 14:03:22;;;;;;;10.98;10.13;;;;;;;;;;4994433;28;20053;-47
2023/03/15 14:05:51;;;;;;;11.80;11.10;;;;;;;;;;4992647;28;20659;-49
2023/03/15 14:08:22;;;;;;;11.05;10.35;;;;;;;;;;4995655;28;20812;-48
2023/03/15 14:11:02;;;;;;;12.30;11.60;;;;;;;;;;4995052;28;20104;-51
2023/03/15 14:13:31;;;;;;;12.35;11.65;;;;;;;;;;4999627;28;20408;-49
2023/03/15 14:16:15;;;;;;;12.48;11.77;;;;;;;;;;4995779;28;20037;-50
2023/03/15 14:18:41;;;;;;;13.02;12.23;;;;;;;;;;4991044;28;20052;-52
2023/03/15 14:21:15;;;;;;;11.48;10.77;;;;;;;;;;4996083;28;20038;-50
2023/03/15 14:23:43;;;;;;;13.40;12.60;;;;;;;;;;4995732;28;20100;-52
2023/03/15 14:26:21;;;;;;;12.85;12.07;;;;;;;;;;4992759;28;20045;-51
2023/03/15 14:28:50;;;;;;;13.18;12.38;;;;;;;;;;5003275;28;20049;-50
2023/03/15 14:31:22;;;;;;;12.73;11.85;;;;;;;;;;4994887;28;20133;-52
2023/03/15 14:33:59;;;;;;;13.25;12.45;;;;;;;;;;4992134;28;20065;-50
2023/03/15 14:36:38;;;;;;;12.07;11.38;;;;;;;;;;4995210;28;20219;-49
2023/03/15 14:39:16;;;;;;;12.75;11.95;;;;;;;;;;4991015;28;20670;-50
2023/03/15 14:41:42;;;;;;;13.27;12.48;;;;;;;;;;5005741;28;20109;-51
2023/03/15 14:44:07;;;;;;;12.15;11.45;;;;;;;;;;4993665;28;20814;-51
2023/03/15 14:46:32;;;;;;;13.50;12.70;;;;;;;;;;4995722;28;20042;-50
2023/03/15 14:48:58;;;;;;;13.52;12.73;;;;;;;;;;4992565;28;20034;-51